Etusivu
METAR-TAF:

METAR-TAF

Lentoasemat :

Karup, Tanska

Leveyspiiri: 56-18N, Pituuspiiri: 009-07E, korkeus merenpinnasta: 52 m

Tämänhetkinen sää

Tämä raportti tehtiin 12 minuuttia sitten, kello 17.20 UTC
Tuuli 9 kn etelästä/kaakosta
Lämpötila 23°C
Kosteus 50%
Ilmanpaine 1027 hPa
Näkyvyys 10 km tai enemmän

METAR: EKKA 191720Z AUTO 16009KT 9999NDV NCD 23/12 Q1027

Aika: 19:32 (17:32 UTC)

Sääennuste

Tämä raportti tehtiin 3 tuntia ja 5 minuuttia sitten, kello 14.27 UTC
Ennuste voimassa 19. päivästä klo 15 UTC - 20. päivään klo 12 UTC
Tuuli 5 kn etelästä
Näkyvyys 10 km tai enemmän
Muutamia pilviä 20000 ft:n korkeudessa

TAF: EKKA 191427Z 1915/2012 17005KT 9999 FEW200

Säähavainnot ja -ennusteet yli 4000 lentoasemalta (METAR- ja TAF-raportit).

Käytössä olevat sääasemat on merkitty karttaan keltaisilla ja punaisilla pisteillä.

Aseta hiiri pisteen päälle nähdäksesi sääaseman nimen.

Klikkaa sitten nähdäksesi säähavainnot ja -ennusteet.

Kartan vaihtaminen: klikkaa mustalla rastilla varustettuja vihreitä pisteitä, niin voit zoomata sisään; viivalla varustettua vihreää pistettä, niin voit zoomata ulos tai vihreitä nuolia, niin pääset viereisille kartoille.


METAR-TAF: